Airfield :
LOGIN :

Register | Disclaimer

   EN    FR    IT 

 










Legend :    VFR   Marginal VFR   IFR   Intensive IFR   Very Intensive IFR
Visi :
Ceiling :
>= 8 km
>= 3000ft
5 to 8 km
1000 to 3000 ft
1500m to 5 km
500 to 1000 ft
800 to 1500m
200 to 500 ft
< 800m
< 200 ft
Symbols :   Thunderstorms  Fog  Heavy snow  Heavy precipitations  Wind > 20 kt
SIGMETs :     Misc.  Thunderstorms  Icing  Turbulence  Mountain Waves  Volcanic Ashes







- Airport Elevation : 31 ft
- IATA code : INV
- Download approach charts


EGPE - Inverness

CURRENT METAR :
  • 251320Z 16007KT 110V220 CAVOK 18/05 Q0997

EXPIRED METARs :
  • 251250Z 17008KT 140V200 CAVOK 17/05 Q0997
  • 251220Z 19012KT 9999 FEW048 18/05 Q0997
  • 251150Z 16010KT 120V210 9999 SCT048 17/05 Q0997
  • 251120Z 19006KT 110V280 9999 SCT032 BKN043 15/06 Q0997
  • 251050Z 18005KT 090V240 9999 FEW012 SCT032 BKN043 15/07 Q0997

TAF AMD TAF EGPE
Valid from the 25 at 12:00 until the 25 at 21:00 UTC


251232Z 2512/2521 17008KT 9999 FEW012
PROB30
TEMPO 2513/2516 7000 SHRA
TEMPO 2516/2520 6000 RA
ATIS : +44 1667 464 255
No reported NOTAMs for that airfield.



MET'MAP, your aeronautical weather chart ! - Copyright ORBIFLY December 2007 - Disclaimer

ORBIFLY MET'MAP TEAM :

Programming & Development : Alexandra Zaïnal
Concept & Development : Baudouin d'Aumeries
Co-Development & Prog : Marc-Olivier Méhu
Technical & hardware support : Manuel Goepfert

Contact : metmap@orbifly.com




SOURCES & CREDITS :

   NOAA